sensor_id;sensor_type;location;lat;lon;timestamp;P1;durP1;ratioP1;P2;durP2;ratioP2
3991;SDS011;2010;48.194;16.394;2024-02-23T00:01:38;4.73;;;2.67;;
3991;SDS011;2010;48.194;16.394;2024-02-23T00:04:11;5.27;;;3.10;;
3991;SDS011;2010;48.194;16.394;2024-02-23T00:06:39;3.00;;;2.80;;
3991;SDS011;2010;48.194;16.394;2024-02-23T00:09:13;2.50;;;2.30;;
3991;SDS011;2010;48.194;16.394;2024-02-23T00:11:44;3.20;;;2.87;;
3991;SDS011;2010;48.194;16.394;2024-02-23T00:14:26;2.60;;;2.40;;
3991;SDS011;2010;48.194;16.394;2024-02-23T00:16:59;2.97;;;2.77;;
3991;SDS011;2010;48.194;16.394;2024-02-23T00:19:30;3.77;;;3.27;;
3991;SDS011;2010;48.194;16.394;2024-02-23T00:22:05;2.50;;;2.30;;
3991;SDS011;2010;48.194;16.394;2024-02-23T00:24:39;3.00;;;2.80;;
3991;SDS011;2010;48.194;16.394;2024-02-23T00:27:09;2.57;;;2.40;;
3991;SDS011;2010;48.194;16.394;2024-02-23T00:29:42;2.87;;;2.57;;
3991;SDS011;2010;48.194;16.394;2024-02-23T00:32:11;5.90;;;3.60;;
3991;SDS011;2010;48.194;16.394;2024-02-23T00:34:42;3.57;;;3.27;;
3991;SDS011;2010;48.194;16.394;2024-02-23T00:37:14;4.27;;;3.73;;
3991;SDS011;2010;48.194;16.394;2024-02-23T00:39:45;3.70;;;3.40;;
3991;SDS011;2010;48.194;16.394;2024-02-23T00:42:17;3.40;;;3.10;;
3991;SDS011;2010;48.194;16.394;2024-02-23T00:44:53;3.33;;;2.73;;
3991;SDS011;2010;48.194;16.394;2024-02-23T00:47:23;3.40;;;3.10;;
3991;SDS011;2010;48.194;16.394;2024-02-23T00:50:01;3.40;;;3.10;;
3991;SDS011;2010;48.194;16.394;2024-02-23T00:52:31;3.40;;;3.10;;
3991;SDS011;2010;48.194;16.394;2024-02-23T00:55:09;2.90;;;2.67;;
3991;SDS011;2010;48.194;16.394;2024-02-23T00:57:41;2.60;;;2.40;;
3991;SDS011;2010;48.194;16.394;2024-02-23T01:02:56;3.03;;;2.80;;
3991;SDS011;2010;48.194;16.394;2024-02-23T01:05:27;3.03;;;2.83;;
3991;SDS011;2010;48.194;16.394;2024-02-23T01:07:59;3.07;;;2.87;;
3991;SDS011;2010;48.194;16.394;2024-02-23T01:10:34;2.83;;;2.57;;
3991;SDS011;2010;48.194;16.394;2024-02-23T01:13:10;2.50;;;2.40;;
3991;SDS011;2010;48.194;16.394;2024-02-23T01:15:41;2.50;;;2.30;;
3991;SDS011;2010;48.194;16.394;2024-02-23T01:18:18;4.10;;;2.57;;
3991;SDS011;2010;48.194;16.394;2024-02-23T01:20:51;3.33;;;3.03;;
3991;SDS011;2010;48.194;16.394;2024-02-23T01:23:23;5.00;;;2.90;;
3991;SDS011;2010;48.194;16.394;2024-02-23T01:25:54;3.20;;;3.00;;
3991;SDS011;2010;48.194;16.394;2024-02-23T01:28:40;3.40;;;3.10;;
3991;SDS011;2010;48.194;16.394;2024-02-23T01:31:13;3.33;;;3.00;;
3991;SDS011;2010;48.194;16.394;2024-02-23T01:33:42;3.80;;;2.83;;
3991;SDS011;2010;48.194;16.394;2024-02-23T01:36:14;4.30;;;3.13;;
3991;SDS011;2010;48.194;16.394;2024-02-23T01:38:43;2.90;;;2.63;;
3991;SDS011;2010;48.194;16.394;2024-02-23T01:41:14;3.40;;;3.20;;
3991;SDS011;2010;48.194;16.394;2024-02-23T01:43:45;4.40;;;4.00;;
3991;SDS011;2010;48.194;16.394;2024-02-23T01:46:21;4.13;;;3.73;;
3991;SDS011;2010;48.194;16.394;2024-02-23T01:48:54;4.70;;;4.07;;
3991;SDS011;2010;48.194;16.394;2024-02-23T01:51:24;5.33;;;3.93;;
3991;SDS011;2010;48.194;16.394;2024-02-23T01:53:52;5.37;;;4.83;;
3991;SDS011;2010;48.194;16.394;2024-02-23T01:56:23;4.93;;;4.43;;
3991;SDS011;2010;48.194;16.394;2024-02-23T01:58:55;5.80;;;5.17;;
3991;SDS011;2010;48.194;16.394;2024-02-23T02:01:45;5.67;;;5.00;;
3991;SDS011;2010;48.194;16.394;2024-02-23T02:04:18;4.63;;;4.23;;
3991;SDS011;2010;48.194;16.394;2024-02-23T02:06:51;5.10;;;4.60;;
3991;SDS011;2010;48.194;16.394;2024-02-23T02:09:28;5.80;;;5.30;;
3991;SDS011;2010;48.194;16.394;2024-02-23T02:11:59;5.93;;;5.43;;
3991;SDS011;2010;48.194;16.394;2024-02-23T02:14:33;5.10;;;4.70;;
3991;SDS011;2010;48.194;16.394;2024-02-23T02:17:07;6.27;;;5.37;;
3991;SDS011;2010;48.194;16.394;2024-02-23T02:19:36;5.47;;;4.97;;
3991;SDS011;2010;48.194;16.394;2024-02-23T02:22:08;6.37;;;4.87;;
3991;SDS011;2010;48.194;16.394;2024-02-23T02:24:45;5.40;;;4.90;;
3991;SDS011;2010;48.194;16.394;2024-02-23T02:27:22;8.77;;;5.57;;
3991;SDS011;2010;48.194;16.394;2024-02-23T02:29:53;8.00;;;6.10;;
3991;SDS011;2010;48.194;16.394;2024-02-23T02:32:24;6.37;;;5.53;;
3991;SDS011;2010;48.194;16.394;2024-02-23T02:34:53;6.50;;;5.90;;
3991;SDS011;2010;48.194;16.394;2024-02-23T02:37:25;6.57;;;5.97;;
3991;SDS011;2010;48.194;16.394;2024-02-23T02:40:01;7.40;;;5.70;;
3991;SDS011;2010;48.194;16.394;2024-02-23T02:42:33;6.73;;;5.43;;
3991;SDS011;2010;48.194;16.394;2024-02-23T02:45:09;5.40;;;4.90;;
3991;SDS011;2010;48.194;16.394;2024-02-23T02:47:51;5.33;;;4.83;;
3991;SDS011;2010;48.194;16.394;2024-02-23T02:50:28;6.33;;;4.80;;
3991;SDS011;2010;48.194;16.394;2024-02-23T02:53:00;7.13;;;5.17;;
3991;SDS011;2010;48.194;16.394;2024-02-23T02:55:32;6.50;;;5.20;;
3991;SDS011;2010;48.194;16.394;2024-02-23T02:58:02;5.40;;;4.90;;
3991;SDS011;2010;48.194;16.394;2024-02-23T03:00:32;4.90;;;4.50;;
3991;SDS011;2010;48.194;16.394;2024-02-23T03:03:06;5.13;;;4.73;;
3991;SDS011;2010;48.194;16.394;2024-02-23T03:05:40;4.67;;;4.27;;
3991;SDS011;2010;48.194;16.394;2024-02-23T03:08:20;5.23;;;4.73;;
3991;SDS011;2010;48.194;16.394;2024-02-23T03:10:58;6.33;;;4.53;;
3991;SDS011;2010;48.194;16.394;2024-02-23T03:13:32;4.23;;;3.70;;
3991;SDS011;2010;48.194;16.394;2024-02-23T03:16:14;4.77;;;4.37;;
3991;SDS011;2010;48.194;16.394;2024-02-23T03:18:47;4.27;;;3.87;;
3991;SDS011;2010;48.194;16.394;2024-02-23T03:21:18;4.07;;;3.77;;
3991;SDS011;2010;48.194;16.394;2024-02-23T03:23:47;4.50;;;4.17;;
3991;SDS011;2010;48.194;16.394;2024-02-23T03:26:21;4.80;;;4.03;;
3991;SDS011;2010;48.194;16.394;2024-02-23T03:28:59;4.57;;;4.17;;
3991;SDS011;2010;48.194;16.394;2024-02-23T03:31:32;3.50;;;3.30;;
3991;SDS011;2010;48.194;16.394;2024-02-23T03:34:03;4.27;;;3.97;;
3991;SDS011;2010;48.194;16.394;2024-02-23T03:36:40;4.50;;;4.10;;
3991;SDS011;2010;48.194;16.394;2024-02-23T03:39:13;5.30;;;4.10;;
3991;SDS011;2010;48.194;16.394;2024-02-23T03:41:46;3.73;;;3.43;;
3991;SDS011;2010;48.194;16.394;2024-02-23T03:44:18;6.87;;;4.70;;
3991;SDS011;2010;48.194;16.394;2024-02-23T03:46:49;6.03;;;5.10;;
3991;SDS011;2010;48.194;16.394;2024-02-23T03:49:36;6.63;;;4.60;;
3991;SDS011;2010;48.194;16.394;2024-02-23T03:52:05;5.37;;;4.70;;
3991;SDS011;2010;48.194;16.394;2024-02-23T03:54:38;8.47;;;5.70;;
3991;SDS011;2010;48.194;16.394;2024-02-23T03:57:08;7.80;;;5.83;;
3991;SDS011;2010;48.194;16.394;2024-02-23T03:59:39;6.60;;;6.00;;
3991;SDS011;2010;48.194;16.394;2024-02-23T04:02:10;8.60;;;6.17;;
3991;SDS011;2010;48.194;16.394;2024-02-23T04:05:00;7.97;;;6.17;;
3991;SDS011;2010;48.194;16.394;2024-02-23T04:07:29;7.37;;;5.60;;
3991;SDS011;2010;48.194;16.394;2024-02-23T04:10:01;7.37;;;6.20;;
3991;SDS011;2010;48.194;16.394;2024-02-23T04:12:32;8.47;;;7.57;;
3991;SDS011;2010;48.194;16.394;2024-02-23T04:15:04;10.80;;;9.33;;
3991;SDS011;2010;48.194;16.394;2024-02-23T04:17:40;11.47;;;10.20;;
3991;SDS011;2010;48.194;16.394;2024-02-23T04:20:12;12.47;;;10.87;;
3991;SDS011;2010;48.194;16.394;2024-02-23T04:22:42;12.00;;;10.80;;
3991;SDS011;2010;48.194;16.394;2024-02-23T04:25:14;12.90;;;10.40;;
3991;SDS011;2010;48.194;16.394;2024-02-23T04:27:47;12.60;;;10.43;;
3991;SDS011;2010;48.194;16.394;2024-02-23T04:30:18;11.90;;;9.97;;
3991;SDS011;2010;48.194;16.394;2024-02-23T04:32:50;10.87;;;9.10;;
3991;SDS011;2010;48.194;16.394;2024-02-23T04:35:20;9.57;;;8.57;;
3991;SDS011;2010;48.194;16.394;2024-02-23T04:38:00;14.20;;;7.70;;
3991;SDS011;2010;48.194;16.394;2024-02-23T04:40:35;9.83;;;8.07;;
3991;SDS011;2010;48.194;16.394;2024-02-23T04:43:09;6.80;;;6.10;;
3991;SDS011;2010;48.194;16.394;2024-02-23T04:45:38;5.43;;;4.90;;
3991;SDS011;2010;48.194;16.394;2024-02-23T04:48:21;4.90;;;4.50;;
3991;SDS011;2010;48.194;16.394;2024-02-23T04:50:54;4.50;;;4.13;;
3991;SDS011;2010;48.194;16.394;2024-02-23T04:53:36;4.03;;;3.63;;
3991;SDS011;2010;48.194;16.394;2024-02-23T04:56:07;2.63;;;2.43;;
3991;SDS011;2010;48.194;16.394;2024-02-23T04:58:37;2.80;;;2.60;;
3991;SDS011;2010;48.194;16.394;2024-02-23T05:01:11;2.57;;;2.47;;
3991;SDS011;2010;48.194;16.394;2024-02-23T05:03:40;2.03;;;1.93;;
3991;SDS011;2010;48.194;16.394;2024-02-23T05:06:13;2.63;;;2.07;;
3991;SDS011;2010;48.194;16.394;2024-02-23T05:08:42;2.10;;;2.00;;
3991;SDS011;2010;48.194;16.394;2024-02-23T05:11:14;1.80;;;1.70;;
3991;SDS011;2010;48.194;16.394;2024-02-23T05:13:49;2.03;;;1.93;;
3991;SDS011;2010;48.194;16.394;2024-02-23T05:16:21;1.70;;;1.60;;
3991;SDS011;2010;48.194;16.394;2024-02-23T05:18:49;1.60;;;1.50;;
3991;SDS011;2010;48.194;16.394;2024-02-23T05:21:21;1.30;;;1.20;;
3991;SDS011;2010;48.194;16.394;2024-02-23T05:24:01;2.03;;;1.53;;
3991;SDS011;2010;48.194;16.394;2024-02-23T05:26:32;1.20;;;1.10;;
3991;SDS011;2010;48.194;16.394;2024-02-23T05:29:02;1.20;;;1.10;;
3991;SDS011;2010;48.194;16.394;2024-02-23T05:31:46;1.30;;;1.20;;
3991;SDS011;2010;48.194;16.394;2024-02-23T05:34:25;1.37;;;1.30;;
3991;SDS011;2010;48.194;16.394;2024-02-23T05:36:58;1.30;;;1.20;;
3991;SDS011;2010;48.194;16.394;2024-02-23T05:39:30;1.17;;;0.90;;
3991;SDS011;2010;48.194;16.394;2024-02-23T05:42:00;1.53;;;1.40;;
3991;SDS011;2010;48.194;16.394;2024-02-23T05:44:30;0.80;;;0.80;;
3991;SDS011;2010;48.194;16.394;2024-02-23T05:47:13;1.07;;;0.97;;
3991;SDS011;2010;48.194;16.394;2024-02-23T05:49:46;0.90;;;0.90;;
3991;SDS011;2010;48.194;16.394;2024-02-23T05:52:16;1.27;;;1.17;;
3991;SDS011;2010;48.194;16.394;2024-02-23T05:54:53;1.63;;;0.83;;
3991;SDS011;2010;48.194;16.394;2024-02-23T05:57:27;1.63;;;1.20;;
3991;SDS011;2010;48.194;16.394;2024-02-23T05:59:58;0.73;;;0.73;;
3991;SDS011;2010;48.194;16.394;2024-02-23T06:02:37;0.83;;;0.83;;
3991;SDS011;2010;48.194;16.394;2024-02-23T06:05:09;1.00;;;0.90;;
3991;SDS011;2010;48.194;16.394;2024-02-23T06:07:50;1.10;;;0.90;;
3991;SDS011;2010;48.194;16.394;2024-02-23T06:10:22;1.03;;;1.03;;
3991;SDS011;2010;48.194;16.394;2024-02-23T06:12:54;0.87;;;0.73;;
3991;SDS011;2010;48.194;16.394;2024-02-23T06:15:28;1.13;;;0.77;;
3991;SDS011;2010;48.194;16.394;2024-02-23T06:17:59;0.73;;;0.73;;
3991;SDS011;2010;48.194;16.394;2024-02-23T06:20:28;1.13;;;1.03;;
3991;SDS011;2010;48.194;16.394;2024-02-23T06:23:14;1.57;;;0.80;;
3991;SDS011;2010;48.194;16.394;2024-02-23T06:25:54;0.70;;;0.60;;
3991;SDS011;2010;48.194;16.394;2024-02-23T06:28:25;0.73;;;0.73;;
3991;SDS011;2010;48.194;16.394;2024-02-23T06:30:54;0.87;;;0.77;;
3991;SDS011;2010;48.194;16.394;2024-02-23T06:33:26;0.70;;;0.70;;
3991;SDS011;2010;48.194;16.394;2024-02-23T06:36:02;1.33;;;0.63;;
3991;SDS011;2010;48.194;16.394;2024-02-23T06:38:36;0.70;;;0.50;;
3991;SDS011;2010;48.194;16.394;2024-02-23T06:41:14;0.80;;;0.73;;
3991;SDS011;2010;48.194;16.394;2024-02-23T06:43:51;0.57;;;0.57;;
3991;SDS011;2010;48.194;16.394;2024-02-23T06:46:21;1.60;;;1.03;;
3991;SDS011;2010;48.194;16.394;2024-02-23T06:48:52;0.63;;;0.63;;
3991;SDS011;2010;48.194;16.394;2024-02-23T06:51:28;5.80;;;1.03;;
3991;SDS011;2010;48.194;16.394;2024-02-23T06:54:09;0.90;;;0.90;;
3991;SDS011;2010;48.194;16.394;2024-02-23T06:56:42;0.60;;;0.60;;
3991;SDS011;2010;48.194;16.394;2024-02-23T06:59:13;0.83;;;0.83;;
3991;SDS011;2010;48.194;16.394;2024-02-23T07:01:57;0.83;;;0.60;;
3991;SDS011;2010;48.194;16.394;2024-02-23T07:04:36;0.80;;;0.73;;
3991;SDS011;2010;48.194;16.394;2024-02-23T07:07:10;0.93;;;0.77;;
3991;SDS011;2010;48.194;16.394;2024-02-23T07:09:44;0.80;;;0.80;;
3991;SDS011;2010;48.194;16.394;2024-02-23T07:12:15;0.80;;;0.80;;
3991;SDS011;2010;48.194;16.394;2024-02-23T07:14:46;1.10;;;1.00;;
3991;SDS011;2010;48.194;16.394;2024-02-23T07:17:29;1.50;;;1.20;;
3991;SDS011;2010;48.194;16.394;2024-02-23T07:20:01;0.80;;;0.80;;
3991;SDS011;2010;48.194;16.394;2024-02-23T07:22:33;0.80;;;0.80;;
3991;SDS011;2010;48.194;16.394;2024-02-23T07:25:19;0.70;;;0.70;;
3991;SDS011;2010;48.194;16.394;2024-02-23T07:28:00;1.67;;;0.90;;
3991;SDS011;2010;48.194;16.394;2024-02-23T07:30:46;0.70;;;0.70;;
3991;SDS011;2010;48.194;16.394;2024-02-23T07:33:19;1.50;;;1.40;;
3991;SDS011;2010;48.194;16.394;2024-02-23T07:35:50;1.80;;;1.70;;
3991;SDS011;2010;48.194;16.394;2024-02-23T07:38:29;1.17;;;1.07;;
3991;SDS011;2010;48.194;16.394;2024-02-23T07:41:06;1.27;;;0.80;;
3991;SDS011;2010;48.194;16.394;2024-02-23T07:43:40;1.20;;;0.80;;
3991;SDS011;2010;48.194;16.394;2024-02-23T07:46:09;0.90;;;0.80;;
3991;SDS011;2010;48.194;16.394;2024-02-23T07:48:41;0.80;;;0.77;;
3991;SDS011;2010;48.194;16.394;2024-02-23T07:51:12;1.60;;;0.83;;
3991;SDS011;2010;48.194;16.394;2024-02-23T07:53:46;0.60;;;0.60;;
3991;SDS011;2010;48.194;16.394;2024-02-23T07:56:21;0.80;;;0.80;;
3991;SDS011;2010;48.194;16.394;2024-02-23T07:58:53;1.10;;;1.00;;
3991;SDS011;2010;48.194;16.394;2024-02-23T08:01:24;1.03;;;0.63;;
3991;SDS011;2010;48.194;16.394;2024-02-23T08:03:57;1.23;;;0.80;;
3991;SDS011;2010;48.194;16.394;2024-02-23T08:06:30;0.90;;;0.90;;
3991;SDS011;2010;48.194;16.394;2024-02-23T08:09:02;1.80;;;1.17;;
3991;SDS011;2010;48.194;16.394;2024-02-23T08:11:33;3.43;;;1.20;;
3991;SDS011;2010;48.194;16.394;2024-02-23T08:14:04;2.50;;;1.33;;
3991;SDS011;2010;48.194;16.394;2024-02-23T08:16:41;1.90;;;1.03;;
3991;SDS011;2010;48.194;16.394;2024-02-23T08:19:10;1.20;;;1.00;;
3991;SDS011;2010;48.194;16.394;2024-02-23T08:21:51;1.53;;;1.07;;
3991;SDS011;2010;48.194;16.394;2024-02-23T08:24:20;1.20;;;1.07;;
3991;SDS011;2010;48.194;16.394;2024-02-23T08:26:52;1.50;;;1.10;;
3991;SDS011;2010;48.194;16.394;2024-02-23T08:29:25;1.67;;;0.90;;
3991;SDS011;2010;48.194;16.394;2024-02-23T08:31:55;1.03;;;0.90;;
3991;SDS011;2010;48.194;16.394;2024-02-23T08:34:24;1.53;;;1.10;;
3991;SDS011;2010;48.194;16.394;2024-02-23T08:36:57;1.13;;;0.80;;
3991;SDS011;2010;48.194;16.394;2024-02-23T08:39:30;6.33;;;1.07;;
3991;SDS011;2010;48.194;16.394;2024-02-23T08:42:02;2.00;;;1.00;;
3991;SDS011;2010;48.194;16.394;2024-02-23T08:44:31;0.80;;;0.80;;
3991;SDS011;2010;48.194;16.394;2024-02-23T08:47:00;0.70;;;0.70;;
3991;SDS011;2010;48.194;16.394;2024-02-23T08:49:35;0.70;;;0.70;;
3991;SDS011;2010;48.194;16.394;2024-02-23T08:52:05;1.43;;;1.00;;
3991;SDS011;2010;48.194;16.394;2024-02-23T08:54:34;1.17;;;0.70;;
3991;SDS011;2010;48.194;16.394;2024-02-23T08:57:15;1.27;;;1.10;;
3991;SDS011;2010;48.194;16.394;2024-02-23T08:59:46;0.60;;;0.60;;
3991;SDS011;2010;48.194;16.394;2024-02-23T09:02:16;1.37;;;1.07;;
3991;SDS011;2010;48.194;16.394;2024-02-23T09:04:45;0.80;;;0.80;;
3991;SDS011;2010;48.194;16.394;2024-02-23T09:07:18;0.70;;;0.70;;
3991;SDS011;2010;48.194;16.394;2024-02-23T09:09:50;1.10;;;0.90;;
3991;SDS011;2010;48.194;16.394;2024-02-23T09:12:26;1.10;;;0.80;;
3991;SDS011;2010;48.194;16.394;2024-02-23T09:14:59;1.87;;;0.90;;
3991;SDS011;2010;48.194;16.394;2024-02-23T09:17:36;0.70;;;0.70;;
3991;SDS011;2010;48.194;16.394;2024-02-23T09:20:06;0.90;;;0.90;;
3991;SDS011;2010;48.194;16.394;2024-02-23T09:22:36;0.93;;;0.83;;
3991;SDS011;2010;48.194;16.394;2024-02-23T09:25:05;2.07;;;1.87;;
3991;SDS011;2010;48.194;16.394;2024-02-23T09:27:42;1.57;;;0.83;;
3991;SDS011;2010;48.194;16.394;2024-02-23T09:30:11;0.83;;;0.73;;
3991;SDS011;2010;48.194;16.394;2024-02-23T09:32:43;1.30;;;1.20;;
3991;SDS011;2010;48.194;16.394;2024-02-23T09:35:18;1.20;;;1.10;;
3991;SDS011;2010;48.194;16.394;2024-02-23T09:37:49;2.17;;;1.50;;
3991;SDS011;2010;48.194;16.394;2024-02-23T09:40:23;2.60;;;2.20;;
3991;SDS011;2010;48.194;16.394;2024-02-23T09:42:59;0.93;;;0.93;;
3991;SDS011;2010;48.194;16.394;2024-02-23T09:45:34;4.73;;;4.20;;
3991;SDS011;2010;48.194;16.394;2024-02-23T09:48:06;18.40;;;11.40;;
3991;SDS011;2010;48.194;16.394;2024-02-23T09:50:44;9.67;;;7.20;;
3991;SDS011;2010;48.194;16.394;2024-02-23T09:53:25;3.00;;;2.80;;
3991;SDS011;2010;48.194;16.394;2024-02-23T09:56:00;4.30;;;2.77;;
3991;SDS011;2010;48.194;16.394;2024-02-23T09:58:37;2.20;;;1.73;;
3991;SDS011;2010;48.194;16.394;2024-02-23T10:01:05;2.63;;;2.43;;
3991;SDS011;2010;48.194;16.394;2024-02-23T10:03:41;2.93;;;2.73;;
3991;SDS011;2010;48.194;16.394;2024-02-23T10:06:14;1.67;;;1.57;;
3991;SDS011;2010;48.194;16.394;2024-02-23T10:08:46;1.50;;;0.80;;
3991;SDS011;2010;48.194;16.394;2024-02-23T10:11:17;0.90;;;0.90;;
3991;SDS011;2010;48.194;16.394;2024-02-23T10:13:51;1.40;;;1.30;;
3991;SDS011;2010;48.194;16.394;2024-02-23T10:16:21;0.90;;;0.90;;
3991;SDS011;2010;48.194;16.394;2024-02-23T10:18:58;1.10;;;1.00;;
3991;SDS011;2010;48.194;16.394;2024-02-23T10:21:29;1.17;;;1.17;;
3991;SDS011;2010;48.194;16.394;2024-02-23T10:23:59;2.60;;;1.97;;
3991;SDS011;2010;48.194;16.394;2024-02-23T10:26:31;1.50;;;1.40;;
3991;SDS011;2010;48.194;16.394;2024-02-23T10:29:05;1.73;;;1.40;;
3991;SDS011;2010;48.194;16.394;2024-02-23T10:31:41;3.50;;;3.30;;
3991;SDS011;2010;48.194;16.394;2024-02-23T10:34:15;1.97;;;1.77;;
3991;SDS011;2010;48.194;16.394;2024-02-23T10:36:48;1.10;;;1.10;;
3991;SDS011;2010;48.194;16.394;2024-02-23T10:39:20;1.10;;;1.00;;
3991;SDS011;2010;48.194;16.394;2024-02-23T10:42:02;1.07;;;0.97;;
3991;SDS011;2010;48.194;16.394;2024-02-23T10:44:38;0.97;;;0.93;;
3991;SDS011;2010;48.194;16.394;2024-02-23T10:47:08;1.63;;;1.00;;
3991;SDS011;2010;48.194;16.394;2024-02-23T10:49:40;1.07;;;0.90;;
3991;SDS011;2010;48.194;16.394;2024-02-23T10:52:09;1.63;;;1.30;;
3991;SDS011;2010;48.194;16.394;2024-02-23T10:54:45;1.07;;;0.80;;
3991;SDS011;2010;48.194;16.394;2024-02-23T10:57:14;2.10;;;0.70;;
3991;SDS011;2010;48.194;16.394;2024-02-23T10:59:48;5.37;;;1.00;;
3991;SDS011;2010;48.194;16.394;2024-02-23T11:02:24;1.30;;;0.70;;
3991;SDS011;2010;48.194;16.394;2024-02-23T11:05:00;1.00;;;0.90;;
3991;SDS011;2010;48.194;16.394;2024-02-23T11:07:40;1.10;;;0.60;;
3991;SDS011;2010;48.194;16.394;2024-02-23T11:10:22;4.00;;;0.87;;
3991;SDS011;2010;48.194;16.394;2024-02-23T11:12:58;0.67;;;0.67;;
3991;SDS011;2010;48.194;16.394;2024-02-23T11:15:34;0.77;;;0.77;;
3991;SDS011;2010;48.194;16.394;2024-02-23T11:18:21;1.20;;;1.10;;
3991;SDS011;2010;48.194;16.394;2024-02-23T11:20:59;1.60;;;1.30;;
3991;SDS011;2010;48.194;16.394;2024-02-23T11:23:38;1.47;;;1.23;;
3991;SDS011;2010;48.194;16.394;2024-02-23T11:26:11;1.50;;;1.10;;
3991;SDS011;2010;48.194;16.394;2024-02-23T11:28:49;1.10;;;0.97;;
3991;SDS011;2010;48.194;16.394;2024-02-23T11:31:29;3.17;;;1.30;;
3991;SDS011;2010;48.194;16.394;2024-02-23T11:33:58;2.47;;;1.40;;
3991;SDS011;2010;48.194;16.394;2024-02-23T11:36:31;3.83;;;1.10;;
3991;SDS011;2010;48.194;16.394;2024-02-23T11:39:01;2.47;;;1.50;;
3991;SDS011;2010;48.194;16.394;2024-02-23T11:41:38;3.40;;;1.03;;
3991;SDS011;2010;48.194;16.394;2024-02-23T11:44:11;1.30;;;1.17;;
3991;SDS011;2010;48.194;16.394;2024-02-23T11:46:52;1.10;;;0.90;;
3991;SDS011;2010;48.194;16.394;2024-02-23T11:49:26;0.90;;;0.90;;
3991;SDS011;2010;48.194;16.394;2024-02-23T11:51:57;2.80;;;1.23;;
3991;SDS011;2010;48.194;16.394;2024-02-23T11:54:28;1.10;;;1.10;;
3991;SDS011;2010;48.194;16.394;2024-02-23T11:57:14;1.40;;;0.87;;
3991;SDS011;2010;48.194;16.394;2024-02-23T11:59:45;1.13;;;1.03;;
3991;SDS011;2010;48.194;16.394;2024-02-23T12:02:36;1.20;;;1.07;;
3991;SDS011;2010;48.194;16.394;2024-02-23T12:05:06;1.03;;;0.93;;
3991;SDS011;2010;48.194;16.394;2024-02-23T12:07:44;3.10;;;1.90;;
3991;SDS011;2010;48.194;16.394;2024-02-23T12:10:23;5.50;;;2.20;;
3991;SDS011;2010;48.194;16.394;2024-02-23T12:12:55;2.90;;;2.60;;
3991;SDS011;2010;48.194;16.394;2024-02-23T12:15:29;2.27;;;2.17;;
3991;SDS011;2010;48.194;16.394;2024-02-23T12:18:08;2.23;;;2.13;;
3991;SDS011;2010;48.194;16.394;2024-02-23T12:20:39;2.00;;;1.90;;
3991;SDS011;2010;48.194;16.394;2024-02-23T12:23:11;2.30;;;1.73;;
3991;SDS011;2010;48.194;16.394;2024-02-23T12:25:52;3.40;;;1.63;;
3991;SDS011;2010;48.194;16.394;2024-02-23T12:28:25;2.43;;;1.37;;
3991;SDS011;2010;48.194;16.394;2024-02-23T12:30:59;1.90;;;1.23;;
3991;SDS011;2010;48.194;16.394;2024-02-23T12:33:42;1.40;;;1.30;;
3991;SDS011;2010;48.194;16.394;2024-02-23T12:36:18;1.53;;;1.40;;
3991;SDS011;2010;48.194;16.394;2024-02-23T12:38:51;3.33;;;1.50;;
3991;SDS011;2010;48.194;16.394;2024-02-23T12:41:28;1.40;;;1.30;;
3991;SDS011;2010;48.194;16.394;2024-02-23T12:44:00;1.30;;;1.20;;
3991;SDS011;2010;48.194;16.394;2024-02-23T12:46:30;4.00;;;1.50;;
3991;SDS011;2010;48.194;16.394;2024-02-23T12:49:09;1.20;;;1.10;;
3991;SDS011;2010;48.194;16.394;2024-02-23T12:51:47;1.40;;;1.10;;
3991;SDS011;2010;48.194;16.394;2024-02-23T12:54:17;1.50;;;1.40;;
3991;SDS011;2010;48.194;16.394;2024-02-23T12:56:49;1.10;;;1.00;;
3991;SDS011;2010;48.194;16.394;2024-02-23T12:59:24;1.27;;;1.27;;
3991;SDS011;2010;48.194;16.394;2024-02-23T13:01:57;1.40;;;1.30;;
3991;SDS011;2010;48.194;16.394;2024-02-23T13:04:31;5.33;;;1.40;;
3991;SDS011;2010;48.194;16.394;2024-02-23T13:07:18;3.63;;;1.80;;
3991;SDS011;2010;48.194;16.394;2024-02-23T13:09:59;2.13;;;1.40;;
3991;SDS011;2010;48.194;16.394;2024-02-23T13:12:36;3.30;;;1.93;;
3991;SDS011;2010;48.194;16.394;2024-02-23T13:15:06;1.40;;;1.30;;
3991;SDS011;2010;48.194;16.394;2024-02-23T13:17:38;1.67;;;1.40;;
3991;SDS011;2010;48.194;16.394;2024-02-23T13:20:12;1.43;;;1.33;;
3991;SDS011;2010;48.194;16.394;2024-02-23T13:22:41;1.63;;;1.00;;
3991;SDS011;2010;48.194;16.394;2024-02-23T13:25:13;2.63;;;1.57;;
3991;SDS011;2010;48.194;16.394;2024-02-23T13:27:44;2.90;;;1.50;;
3991;SDS011;2010;48.194;16.394;2024-02-23T13:30:19;1.93;;;1.20;;
3991;SDS011;2010;48.194;16.394;2024-02-23T13:32:59;1.40;;;1.30;;
3991;SDS011;2010;48.194;16.394;2024-02-23T13:35:38;1.30;;;1.20;;
3991;SDS011;2010;48.194;16.394;2024-02-23T13:38:07;1.70;;;1.60;;
3991;SDS011;2010;48.194;16.394;2024-02-23T13:40:36;2.63;;;1.40;;
3991;SDS011;2010;48.194;16.394;2024-02-23T13:43:06;1.60;;;1.50;;
3991;SDS011;2010;48.194;16.394;2024-02-23T13:45:48;2.93;;;2.10;;
3991;SDS011;2010;48.194;16.394;2024-02-23T13:48:18;1.50;;;1.50;;
3991;SDS011;2010;48.194;16.394;2024-02-23T13:50:58;1.67;;;1.57;;
3991;SDS011;2010;48.194;16.394;2024-02-23T13:53:31;3.90;;;1.70;;
3991;SDS011;2010;48.194;16.394;2024-02-23T13:56:02;2.53;;;1.83;;
3991;SDS011;2010;48.194;16.394;2024-02-23T13:58:32;1.93;;;1.43;;
3991;SDS011;2010;48.194;16.394;2024-02-23T14:01:07;4.80;;;1.70;;
3991;SDS011;2010;48.194;16.394;2024-02-23T14:03:51;2.87;;;1.27;;
3991;SDS011;2010;48.194;16.394;2024-02-23T14:06:34;1.70;;;1.60;;
3991;SDS011;2010;48.194;16.394;2024-02-23T14:09:03;1.70;;;1.60;;
3991;SDS011;2010;48.194;16.394;2024-02-23T14:11:43;2.80;;;1.70;;
3991;SDS011;2010;48.194;16.394;2024-02-23T14:14:16;2.83;;;2.17;;
3991;SDS011;2010;48.194;16.394;2024-02-23T14:16:48;3.13;;;2.67;;
3991;SDS011;2010;48.194;16.394;2024-02-23T14:19:20;3.13;;;2.60;;
3991;SDS011;2010;48.194;16.394;2024-02-23T14:22:04;2.67;;;2.47;;
3991;SDS011;2010;48.194;16.394;2024-02-23T14:24:34;2.70;;;2.43;;
3991;SDS011;2010;48.194;16.394;2024-02-23T14:27:06;3.13;;;2.40;;
3991;SDS011;2010;48.194;16.394;2024-02-23T14:29:43;3.43;;;2.30;;
3991;SDS011;2010;48.194;16.394;2024-02-23T14:32:16;2.83;;;2.07;;
3991;SDS011;2010;48.194;16.394;2024-02-23T14:34:47;1.80;;;1.70;;
3991;SDS011;2010;48.194;16.394;2024-02-23T14:37:23;2.07;;;1.87;;
3991;SDS011;2010;48.194;16.394;2024-02-23T14:39:58;2.10;;;2.00;;
3991;SDS011;2010;48.194;16.394;2024-02-23T14:42:32;1.80;;;1.70;;
3991;SDS011;2010;48.194;16.394;2024-02-23T14:45:01;2.47;;;2.27;;
3991;SDS011;2010;48.194;16.394;2024-02-23T14:47:32;2.30;;;2.10;;
3991;SDS011;2010;48.194;16.394;2024-02-23T14:50:13;2.27;;;2.10;;
3991;SDS011;2010;48.194;16.394;2024-02-23T14:52:56;1.97;;;1.87;;
3991;SDS011;2010;48.194;16.394;2024-02-23T14:55:30;2.17;;;2.07;;
3991;SDS011;2010;48.194;16.394;2024-02-23T14:58:01;3.43;;;2.77;;
3991;SDS011;2010;48.194;16.394;2024-02-23T15:00:33;2.63;;;2.43;;
3991;SDS011;2010;48.194;16.394;2024-02-23T15:03:03;2.60;;;2.40;;
3991;SDS011;2010;48.194;16.394;2024-02-23T15:05:33;2.27;;;2.13;;
3991;SDS011;2010;48.194;16.394;2024-02-23T15:08:10;2.77;;;2.50;;
3991;SDS011;2010;48.194;16.394;2024-02-23T15:10:40;3.90;;;2.43;;
3991;SDS011;2010;48.194;16.394;2024-02-23T15:13:10;2.43;;;2.20;;
3991;SDS011;2010;48.194;16.394;2024-02-23T15:15:39;2.60;;;2.43;;
3991;SDS011;2010;48.194;16.394;2024-02-23T15:18:25;2.53;;;2.33;;
3991;SDS011;2010;48.194;16.394;2024-02-23T15:20:57;3.23;;;2.80;;
3991;SDS011;2010;48.194;16.394;2024-02-23T15:23:37;3.27;;;3.00;;
3991;SDS011;2010;48.194;16.394;2024-02-23T15:26:14;3.53;;;3.23;;
3991;SDS011;2010;48.194;16.394;2024-02-23T15:28:44;3.13;;;2.93;;
3991;SDS011;2010;48.194;16.394;2024-02-23T15:31:14;4.27;;;2.93;;
3991;SDS011;2010;48.194;16.394;2024-02-23T15:33:43;3.50;;;3.20;;
3991;SDS011;2010;48.194;16.394;2024-02-23T15:36:16;3.73;;;3.13;;
3991;SDS011;2010;48.194;16.394;2024-02-23T15:38:57;2.93;;;2.73;;
3991;SDS011;2010;48.194;16.394;2024-02-23T15:41:34;3.77;;;3.30;;
3991;SDS011;2010;48.194;16.394;2024-02-23T15:44:06;3.33;;;3.03;;